createdAt,value
2023-04-27T00:02:16.763Z,50.00
2023-04-27T00:05:26.731Z,50.14
2023-04-27T00:08:41.750Z,50.35
2023-04-27T00:11:49.638Z,50.53
2023-04-27T00:15:04.678Z,50.54
2023-04-27T00:18:26.610Z,50.95
2023-04-27T00:21:35.158Z,50.44
2023-04-27T00:24:49.605Z,50.21
2023-04-27T00:27:58.386Z,50.00
2023-04-27T00:31:07.089Z,50.09
2023-04-27T00:34:15.650Z,50.55
2023-04-27T00:37:24.570Z,50.13
2023-04-27T00:40:40.075Z,50.77
2023-04-27T00:43:44.145Z,50.63
2023-04-27T00:46:59.679Z,50.69
2023-04-27T00:50:01.530Z,51.19
2023-04-27T00:53:16.683Z,51.79
2023-04-27T00:56:24.683Z,51.04
2023-04-27T00:59:40.190Z,51.54
2023-04-27T01:02:48.764Z,51.60
2023-04-27T01:05:58.010Z,51.48
2023-04-27T01:09:07.447Z,51.37
2023-04-27T01:12:21.622Z,50.94
2023-04-27T01:15:23.240Z,50.92
2023-04-27T01:18:44.649Z,51.39
2023-04-27T01:21:53.435Z,50.55
2023-04-27T01:25:01.654Z,50.91
2023-04-27T01:28:16.722Z,51.66
2023-04-27T01:31:18.578Z,51.58
2023-04-27T01:34:33.694Z,51.97
2023-04-27T01:37:42.698Z,52.15
2023-04-27T01:40:57.966Z,52.37
2023-04-27T01:44:05.730Z,52.44
2023-04-27T01:47:16.277Z,52.46
2023-04-27T01:50:24.706Z,52.59
2023-04-27T01:53:39.719Z,52.89
2023-04-27T01:56:41.845Z,53.64
2023-04-27T01:59:56.702Z,53.43
2023-04-27T02:03:04.979Z,53.55
2023-04-27T02:06:19.677Z,53.47
2023-04-27T02:09:28.250Z,53.28
2023-04-27T02:12:42.717Z,53.37
2023-04-27T02:16:04.719Z,53.89
2023-04-27T02:19:20.005Z,53.09
2023-04-27T02:22:21.677Z,52.90
2023-04-27T02:25:36.705Z,52.44
2023-04-27T02:28:45.650Z,51.86
2023-04-27T02:31:54.805Z,51.91
2023-04-27T02:35:04.021Z,51.79
2023-04-27T02:38:11.762Z,52.64
2023-04-27T02:41:26.714Z,52.48
2023-04-27T02:44:29.046Z,53.24
2023-04-27T02:47:43.807Z,52.72
2023-04-27T02:50:52.272Z,52.42
2023-04-27T02:54:06.722Z,52.71
2023-04-27T02:57:15.237Z,52.43
2023-04-27T03:00:23.690Z,53.39
2023-04-27T03:03:38.966Z,54.33
2023-04-27T03:06:41.249Z,54.11
2023-04-27T03:09:55.709Z,54.71
2023-04-27T03:12:57.430Z,55.25
2023-04-27T03:16:13.529Z,55.79
2023-04-27T03:19:22.009Z,56.18
2023-04-27T03:22:37.743Z,55.44
2023-04-27T03:25:39.515Z,55.65
2023-04-27T03:28:53.732Z,56.92
2023-04-27T03:31:55.587Z,54.70
2023-04-27T03:35:11.762Z,56.72
2023-04-27T03:38:19.802Z,56.81
2023-04-27T03:41:28.253Z,56.56
2023-04-27T03:44:42.728Z,55.67
2023-04-27T03:47:44.688Z,54.68
2023-04-27T03:51:00.858Z,54.58
2023-04-27T03:54:10.768Z,53.87
2023-04-27T03:57:26.025Z,53.37
2023-04-27T04:00:35.050Z,53.59
2023-04-27T04:03:43.385Z,54.32
2023-04-27T04:06:53.690Z,54.13
2023-04-27T04:10:02.394Z,53.28
2023-04-27T04:13:10.748Z,52.54
2023-04-27T04:16:32.746Z,52.41
2023-04-27T04:19:47.772Z,52.18
2023-04-27T04:22:56.357Z,53.92
2023-04-27T04:26:05.448Z,51.84
2023-04-27T04:29:13.460Z,51.37
2023-04-27T04:32:30.633Z,52.50
2023-04-27T04:35:32.554Z,53.69
2023-04-27T04:38:46.732Z,55.60
2023-04-27T04:41:55.557Z,56.13
2023-04-27T04:45:03.734Z,55.52
2023-04-27T04:48:23.976Z,55.86
2023-04-27T04:51:32.397Z,55.41
2023-04-27T04:54:40.863Z,56.12
2023-04-27T04:57:49.256Z,55.71
2023-04-27T05:00:57.752Z,55.23
2023-04-27T05:04:13.300Z,55.07
2023-04-27T05:07:24.755Z,54.54
2023-04-27T05:10:33.081Z,54.34
2023-04-27T05:13:47.756Z,53.90
2023-04-27T05:17:09.790Z,54.44
2023-04-27T05:20:25.125Z,53.96
2023-04-27T05:23:33.994Z,53.91
2023-04-27T05:26:49.837Z,53.17
2023-04-27T05:29:57.779Z,51.47
2023-04-27T05:33:06.634Z,51.05
2023-04-27T05:36:14.780Z,49.63
2023-04-27T05:39:24.251Z,50.29
2023-04-27T05:42:38.778Z,50.08
2023-04-27T05:45:53.816Z,50.36
2023-04-27T05:49:09.112Z,51.03
2023-04-27T05:52:23.846Z,50.18
2023-04-27T05:55:32.445Z,49.68
2023-04-27T05:58:40.601Z,49.19
2023-04-27T06:01:55.081Z,48.97
2023-04-27T06:05:06.074Z,48.30
2023-04-27T06:08:20.833Z,46.79
2023-04-27T06:11:22.572Z,46.30
2023-04-27T06:14:37.803Z,45.61
2023-04-27T06:17:46.463Z,44.43
2023-04-27T06:21:08.872Z,43.32
2023-04-27T06:24:23.786Z,42.25
2023-04-27T06:27:25.525Z,41.42
2023-04-27T06:30:41.853Z,41.16
2023-04-27T06:33:59.927Z,41.66
2023-04-27T06:37:08.832Z,40.60
2023-04-27T06:40:18.426Z,40.95
2023-04-27T06:43:27.177Z,39.81
2023-04-27T06:46:41.864Z,39.85
2023-04-27T06:49:43.895Z,38.72
2023-04-27T06:52:59.897Z,37.70
2023-04-27T06:56:09.113Z,37.55
2023-04-27T06:59:25.903Z,37.79
2023-04-27T07:02:44.441Z,37.82
2023-04-27T07:05:53.110Z,37.32
2023-04-27T07:09:16.272Z,36.33
2023-04-27T07:12:38.506Z,36.23
2023-04-27T07:15:46.407Z,35.56
2023-04-27T07:19:01.850Z,36.05
2023-04-27T07:22:28.002Z,36.18
2023-04-27T07:25:53.059Z,36.64
2023-04-27T07:29:25.402Z,34.11
2023-04-27T07:32:43.718Z,33.26
2023-04-27T07:35:52.437Z,34.40
2023-04-27T07:39:13.566Z,34.02
2023-04-27T07:42:22.184Z,34.19
2023-04-27T07:45:30.608Z,33.94
2023-04-27T07:48:39.125Z,33.43
2023-04-27T07:51:53.856Z,33.76
2023-04-27T07:54:57.405Z,33.51
2023-04-27T07:58:13.143Z,32.21
2023-04-27T08:01:15.182Z,30.03
2023-04-27T08:04:30.144Z,32.15
2023-04-27T08:07:36.026Z,31.15
2023-04-27T08:10:59.226Z,30.33
2023-04-27T08:14:01.239Z,29.45
2023-04-27T08:17:16.170Z,29.58
2023-04-27T08:20:39.306Z,29.54
2023-04-27T08:24:01.448Z,29.28
2023-04-27T08:27:16.898Z,28.26
2023-04-27T08:30:31.986Z,28.19
2023-04-27T08:33:40.614Z,29.85
2023-04-27T08:36:48.998Z,28.29
2023-04-27T08:40:03.853Z,27.71
2023-04-27T08:43:15.923Z,28.17
2023-04-27T08:50:06.115Z,28.61
2023-04-27T08:53:30.189Z,28.33
2023-04-27T08:56:45.906Z,28.45
2023-04-27T09:00:04.983Z,28.28
2023-04-27T09:03:27.716Z,29.11
2023-04-27T09:06:39.837Z,27.63
2023-04-27T09:16:31.378Z,27.28
2023-04-27T09:19:52.929Z,28.67
2023-04-27T09:23:01.586Z,28.88
2023-04-27T09:26:15.894Z,32.74
2023-04-27T09:29:39.368Z,27.25
2023-04-27T09:32:58.965Z,27.53
2023-04-27T09:36:16.324Z,29.50
2023-04-27T09:39:21.492Z,27.09
2023-04-27T09:42:36.949Z,26.49
2023-04-27T09:45:46.746Z,30.90
2023-04-27T09:48:57.335Z,28.37
2023-04-27T09:52:12.233Z,25.20
2023-04-27T09:55:31.929Z,26.03
2023-04-27T09:58:51.823Z,26.23
2023-04-27T10:02:23.582Z,26.43
2023-04-27T10:05:57.211Z,18.93
2023-04-27T10:09:12.132Z,16.52
2023-04-27T10:12:32.954Z,16.12
2023-04-27T10:15:47.951Z,14.77
2023-04-27T10:19:04.042Z,13.97
2023-04-27T10:22:12.833Z,14.63
2023-04-27T10:25:31.690Z,13.65
2023-04-27T10:28:49.268Z,17.32
2023-04-27T10:32:07.198Z,13.34
2023-04-27T10:35:20.042Z,20.10
2023-04-27T10:38:39.903Z,17.76
2023-04-27T10:41:53.112Z,19.63
2023-04-27T10:45:08.979Z,22.05
2023-04-27T10:48:20.998Z,22.85
2023-04-27T10:51:36.661Z,17.74
2023-04-27T10:54:56.011Z,15.44
2023-04-27T10:58:04.943Z,13.29
2023-04-27T11:01:31.282Z,12.92
2023-04-27T11:04:46.720Z,13.60
2023-04-27T11:08:07.030Z,12.04
2023-04-27T11:11:25.166Z,11.20
2023-04-27T11:14:38.152Z,11.73
2023-04-27T11:17:52.980Z,12.61
2023-04-27T11:21:23.489Z,12.62
2023-04-27T11:24:39.611Z,12.55
2023-04-27T11:27:48.016Z,12.34
2023-04-27T11:30:58.307Z,15.59
2023-04-27T11:34:13.966Z,18.31
2023-04-27T11:37:22.696Z,19.81
2023-04-27T11:40:37.015Z,19.22
2023-04-27T11:43:45.968Z,22.32
2023-04-27T11:47:02.033Z,22.24
2023-04-27T11:50:30.988Z,24.63
2023-04-27T11:53:36.642Z,20.38
2023-04-27T11:56:51.148Z,20.29
2023-04-27T11:59:53.697Z,24.90
2023-04-27T12:03:10.149Z,24.30
2023-04-27T12:09:40.283Z,24.12
2023-04-27T12:12:55.008Z,24.42
2023-04-27T12:15:57.656Z,24.32
2023-04-27T12:19:20.039Z,23.19
2023-04-27T12:22:32.334Z,23.91
2023-04-27T12:25:43.314Z,23.61
2023-04-27T12:28:51.964Z,23.12
2023-04-27T12:32:11.207Z,23.87
2023-04-27T12:35:22.009Z,24.27
2023-04-27T12:38:37.013Z,23.74
2023-04-27T12:41:55.838Z,24.98
2023-04-27T12:45:07.243Z,23.63
2023-04-27T12:48:16.947Z,23.54
2023-04-27T12:51:27.564Z,24.45
2023-04-27T12:54:36.306Z,23.91
2023-04-27T12:57:51.045Z,24.81
2023-04-27T13:00:59.243Z,24.19
2023-04-27T13:04:08.156Z,23.71
2023-04-27T13:07:23.351Z,23.41
2023-04-27T13:10:47.252Z,22.99
2023-04-27T13:13:55.996Z,24.10
2023-04-27T13:17:11.045Z,24.66
2023-04-27T13:20:22.529Z,24.11
2023-04-27T13:23:38.038Z,24.24
2023-04-27T13:26:54.395Z,24.32
2023-04-27T13:30:04.531Z,24.11
2023-04-27T13:33:22.672Z,24.80
2023-04-27T13:36:31.924Z,24.34
2023-04-27T13:39:47.062Z,23.80
2023-04-27T13:42:49.124Z,23.88
2023-04-27T13:46:12.274Z,23.70
2023-04-27T13:49:21.049Z,24.72
2023-04-27T13:52:30.558Z,24.14
2023-04-27T13:55:40.085Z,24.89
2023-04-27T13:58:56.134Z,24.06
2023-04-27T14:02:01.103Z,24.27
2023-04-27T14:05:16.109Z,24.13
2023-04-27T14:08:24.683Z,24.05
2023-04-27T14:11:42.125Z,24.26
2023-04-27T14:15:03.117Z,25.45
2023-04-27T14:18:31.936Z,24.51
2023-04-27T14:21:48.123Z,23.98
2023-04-27T14:25:04.100Z,24.48
2023-04-27T14:28:06.983Z,24.65
2023-04-27T14:31:22.147Z,25.70
2023-04-27T14:34:24.305Z,24.90
2023-04-27T14:37:39.130Z,25.90
2023-04-27T14:40:40.853Z,24.31
2023-04-27T14:43:55.144Z,23.44
2023-04-27T14:47:04.225Z,23.50
2023-04-27T14:50:19.138Z,24.93
2023-04-27T14:53:27.573Z,23.63
2023-04-27T14:56:42.084Z,24.70
2023-04-27T14:59:50.579Z,24.11
2023-04-27T15:02:59.581Z,24.26
2023-04-27T15:06:08.013Z,24.86
2023-04-27T15:09:16.268Z,24.84
2023-04-27T15:12:31.157Z,25.45
2023-04-27T15:15:32.851Z,25.09
2023-04-27T15:18:47.097Z,25.75
2023-04-27T15:22:09.138Z,26.82
2023-04-27T15:25:10.986Z,26.02
2023-04-27T15:28:26.164Z,26.22
2023-04-27T15:31:34.899Z,26.37
2023-04-27T15:34:49.177Z,26.42
2023-04-27T15:38:04.137Z,26.77
2023-04-27T15:41:06.026Z,27.23
2023-04-27T15:44:21.416Z,26.21
2023-04-27T15:47:29.777Z,26.86
2023-04-27T15:50:44.428Z,26.92
2023-04-27T15:53:52.693Z,26.69
2023-04-27T15:57:01.348Z,26.79
2023-04-27T16:00:10.363Z,27.12
2023-04-27T16:03:19.407Z,27.36
2023-04-27T16:06:41.460Z,27.80
2023-04-27T16:09:43.258Z,28.83
2023-04-27T16:12:58.487Z,28.18
2023-04-27T16:16:06.148Z,27.56
2023-04-27T16:19:21.440Z,28.89
2023-04-27T16:22:29.794Z,28.57
2023-04-27T16:25:44.150Z,28.55
2023-04-27T16:32:14.504Z,28.61
2023-04-27T16:35:17.162Z,28.79
2023-04-27T16:38:32.159Z,28.83
2023-04-27T16:41:40.194Z,28.38
2023-04-27T16:44:49.098Z,29.30
2023-04-27T16:48:04.205Z,28.91
2023-04-27T16:51:06.007Z,29.55
2023-04-27T16:54:20.157Z,29.76
2023-04-27T16:57:28.157Z,28.99
2023-04-27T17:00:36.757Z,29.42
2023-04-27T17:03:45.311Z,29.71
2023-04-27T17:06:53.714Z,29.88
2023-04-27T17:10:02.158Z,29.67
2023-04-27T17:13:18.231Z,29.83
2023-04-27T17:16:26.424Z,29.84
2023-04-27T17:19:42.031Z,30.72
2023-04-27T17:22:50.242Z,31.01
2023-04-27T17:26:05.176Z,30.94
2023-04-27T17:29:20.200Z,31.37
2023-04-27T17:32:35.241Z,30.95
2023-04-27T17:35:36.919Z,30.78
2023-04-27T17:38:51.525Z,31.38
2023-04-27T17:42:00.213Z,32.07
2023-04-27T17:45:16.239Z,31.64
2023-04-27T17:48:18.420Z,31.85
2023-04-27T17:51:33.242Z,31.60
2023-04-27T17:54:42.410Z,31.79
2023-04-27T17:57:57.213Z,31.98
2023-04-27T18:01:13.300Z,32.43
2023-04-27T18:04:21.371Z,32.35
2023-04-27T18:07:30.170Z,32.26
2023-04-27T18:10:38.543Z,32.40
2023-04-27T18:13:46.894Z,32.24
2023-04-27T18:17:01.206Z,32.42
2023-04-27T18:20:16.694Z,33.38
2023-04-27T18:23:25.060Z,32.66
2023-04-27T18:26:42.303Z,33.72
2023-04-27T18:29:47.229Z,33.48
2023-04-27T18:33:02.314Z,33.20
2023-04-27T18:36:04.053Z,34.35
2023-04-27T18:39:18.252Z,34.83
2023-04-27T18:42:26.251Z,35.54
2023-04-27T18:45:35.185Z,35.88
2023-04-27T18:48:43.219Z,36.45
2023-04-27T18:51:51.874Z,36.54
2023-04-27T18:55:06.566Z,37.07
2023-04-27T18:58:14.213Z,36.97
2023-04-27T19:01:24.620Z,37.07
2023-04-27T19:04:33.371Z,37.33
2023-04-27T19:07:42.869Z,38.02
2023-04-27T19:10:58.609Z,37.66
2023-04-27T19:14:09.134Z,37.72
2023-04-27T19:17:17.333Z,37.73
2023-04-27T19:20:39.313Z,37.79
2023-04-27T19:23:41.638Z,38.16
2023-04-27T19:26:56.494Z,37.67
2023-04-27T19:30:05.253Z,38.84
2023-04-27T19:33:21.262Z,38.20
2023-04-27T19:36:29.815Z,38.47
2023-04-27T19:39:38.962Z,38.77
2023-04-27T19:42:53.276Z,38.86
2023-04-27T19:45:55.134Z,39.23
2023-04-27T19:49:10.258Z,39.36
2023-04-27T19:52:12.124Z,39.35
2023-04-27T19:55:27.328Z,39.72
2023-04-27T19:58:36.258Z,40.30
2023-04-27T20:01:44.341Z,41.59
2023-04-27T20:05:01.676Z,41.27
2023-04-27T20:08:04.053Z,41.78
2023-04-27T20:11:18.261Z,42.15
2023-04-27T20:14:26.270Z,42.32
2023-04-27T20:17:34.840Z,42.82
2023-04-27T20:20:51.132Z,42.18
2023-04-27T20:23:59.102Z,42.56
2023-04-27T20:27:07.351Z,42.69
2023-04-27T20:30:22.253Z,43.34
2023-04-27T20:33:24.025Z,43.15
2023-04-27T20:36:38.582Z,43.03
2023-04-27T20:39:40.551Z,42.90
2023-04-27T20:42:55.289Z,43.22
2023-04-27T20:46:03.355Z,43.60
2023-04-27T20:49:13.413Z,43.72
2023-04-27T20:52:32.421Z,44.08
2023-04-27T20:55:35.621Z,44.07
2023-04-27T20:58:50.473Z,44.77
2023-04-27T21:02:05.380Z,44.88
2023-04-27T21:05:07.289Z,44.90
2023-04-27T21:08:23.341Z,44.75
2023-04-27T21:11:31.346Z,44.93
2023-04-27T21:14:47.353Z,45.63
2023-04-27T21:17:55.421Z,45.63
2023-04-27T21:21:17.368Z,45.56
2023-04-27T21:24:20.030Z,45.36
2023-04-27T21:27:35.340Z,44.60
2023-04-27T21:30:38.005Z,44.68
2023-04-27T21:33:52.375Z,45.13
2023-04-27T21:37:07.336Z,45.32
2023-04-27T21:40:16.305Z,45.55
2023-04-27T21:43:31.484Z,45.68
2023-04-27T21:46:40.122Z,45.79
2023-04-27T21:49:50.568Z,45.80
2023-04-27T21:53:06.351Z,45.93
2023-04-27T21:56:08.145Z,46.25
2023-04-27T21:59:22.342Z,46.20
2023-04-27T22:02:47.625Z,45.65
2023-04-27T22:06:02.298Z,45.06
2023-04-27T22:09:10.646Z,44.62
2023-04-27T22:12:18.895Z,44.79
2023-04-27T22:15:33.566Z,44.47
2023-04-27T22:18:48.592Z,44.70
2023-04-27T22:21:57.614Z,44.52
2023-04-27T22:25:07.531Z,44.70
2023-04-27T22:28:22.346Z,44.54
2023-04-27T22:31:31.350Z,45.17
2023-04-27T22:34:46.398Z,45.37
2023-04-27T22:37:54.359Z,47.14
2023-04-27T22:41:09.325Z,48.11
2023-04-27T22:44:18.107Z,48.29
2023-04-27T22:47:25.950Z,49.45
2023-04-27T22:50:40.345Z,49.16
2023-04-27T22:53:55.381Z,48.72
2023-04-27T22:57:10.346Z,49.55
2023-04-27T23:00:12.586Z,49.20
2023-04-27T23:03:28.582Z,49.42
2023-04-27T23:06:31.048Z,49.65
2023-04-27T23:09:45.338Z,49.34
2023-04-27T23:12:53.794Z,49.45
2023-04-27T23:16:01.956Z,49.39
2023-04-27T23:19:10.382Z,49.45
2023-04-27T23:22:26.506Z,49.75
2023-04-27T23:25:35.430Z,49.66
2023-04-27T23:28:50.357Z,49.68
2023-04-27T23:31:52.319Z,50.56
2023-04-27T23:35:07.401Z,50.04
2023-04-27T23:38:09.179Z,49.99
2023-04-27T23:41:23.449Z,50.08
2023-04-27T23:44:38.374Z,50.14
2023-04-27T23:47:46.691Z,49.51
2023-04-27T23:51:00.794Z,49.68
2023-04-27T23:54:15.693Z,50.38
2023-04-27T23:57:17.573Z,50.00
